sensor_id;sensor_type;location;lat;lon;timestamp;pressure;altitude;pressure_sealevel;temperature;humidity
54042;BME280;41156;51.508;5.406;2022-07-04T00:00:43;101921.16;;;15.00;67.11
54042;BME280;41156;51.508;5.406;2022-07-04T00:03:43;101915.31;;;14.96;67.66
54042;BME280;41156;51.508;5.406;2022-07-04T00:06:43;101913.25;;;14.92;67.26
54042;BME280;41156;51.508;5.406;2022-07-04T00:09:44;101922.91;;;14.88;67.44
54042;BME280;41156;51.508;5.406;2022-07-04T00:12:44;101910.16;;;14.82;67.88
54042;BME280;41156;51.508;5.406;2022-07-04T00:15:45;101909.97;;;14.76;67.94
54042;BME280;41156;51.508;5.406;2022-07-04T00:18:45;101905.19;;;14.72;67.75
54042;BME280;41156;51.508;5.406;2022-07-04T00:21:45;101898.75;;;14.66;68.09
54042;BME280;41156;51.508;5.406;2022-07-04T00:24:46;101906.28;;;14.64;68.48
54042;BME280;41156;51.508;5.406;2022-07-04T00:27:46;101905.88;;;14.60;68.53
54042;BME280;41156;51.508;5.406;2022-07-04T00:30:46;101907.09;;;14.58;68.60
54042;BME280;41156;51.508;5.406;2022-07-04T00:33:47;101907.53;;;14.55;68.95
54042;BME280;41156;51.508;5.406;2022-07-04T00:36:47;101902.53;;;14.52;69.40
54042;BME280;41156;51.508;5.406;2022-07-04T00:39:48;101911.34;;;14.47;69.12
54042;BME280;41156;51.508;5.406;2022-07-04T00:42:48;101902.53;;;14.45;69.67
54042;BME280;41156;51.508;5.406;2022-07-04T00:45:49;101902.97;;;14.42;69.48
54042;BME280;41156;51.508;5.406;2022-07-04T00:48:49;101898.81;;;14.39;69.55
54042;BME280;41156;51.508;5.406;2022-07-04T00:51:50;101904.88;;;14.35;70.20
54042;BME280;41156;51.508;5.406;2022-07-04T00:54:50;101904.50;;;14.31;70.07
54042;BME280;41156;51.508;5.406;2022-07-04T00:57:51;101904.91;;;14.28;70.07
54042;BME280;41156;51.508;5.406;2022-07-04T01:00:51;101905.34;;;14.25;70.34
54042;BME280;41156;51.508;5.406;2022-07-04T01:03:52;101908.47;;;14.22;70.82
54042;BME280;41156;51.508;5.406;2022-07-04T01:06:52;101899.09;;;14.18;70.80
54042;BME280;41156;51.508;5.406;2022-07-04T01:09:53;101900.34;;;14.15;70.97
54042;BME280;41156;51.508;5.406;2022-07-04T01:12:53;101900.78;;;14.12;70.78
54042;BME280;41156;51.508;5.406;2022-07-04T01:15:55;101892.66;;;14.05;71.11
54042;BME280;41156;51.508;5.406;2022-07-04T01:18:55;101888.66;;;14.01;70.99
54042;BME280;41156;51.508;5.406;2022-07-04T01:21:56;101891.81;;;13.98;71.22
54042;BME280;41156;51.508;5.406;2022-07-04T01:24:56;101883.88;;;13.97;71.75
54042;BME280;41156;51.508;5.406;2022-07-04T01:28:00;101885.13;;;13.94;71.27
54042;BME280;41156;51.508;5.406;2022-07-04T01:31:01;101876.34;;;13.92;71.21
54042;BME280;41156;51.508;5.406;2022-07-04T01:34:01;101870.28;;;13.90;71.45
54042;BME280;41156;51.508;5.406;2022-07-04T01:37:02;101870.09;;;13.85;71.58
54042;BME280;41156;51.508;5.406;2022-07-04T01:40:02;101872.41;;;13.81;71.86
54042;BME280;41156;51.508;5.406;2022-07-04T01:43:03;101864.06;;;13.76;71.89
54042;BME280;41156;51.508;5.406;2022-07-04T01:46:03;101862.59;;;13.74;72.02
54042;BME280;41156;51.508;5.406;2022-07-04T01:49:04;101855.72;;;13.71;71.89
54042;BME280;41156;51.508;5.406;2022-07-04T01:52:04;101856.94;;;13.68;72.30
54042;BME280;41156;51.508;5.406;2022-07-04T01:55:05;101860.09;;;13.65;72.02
54042;BME280;41156;51.508;5.406;2022-07-04T01:58:05;101858.44;;;13.64;72.33
54042;BME280;41156;51.508;5.406;2022-07-04T02:01:06;101845.06;;;13.63;72.35
54042;BME280;41156;51.508;5.406;2022-07-04T02:04:25;101850.09;;;13.59;72.22
54042;BME280;41156;51.508;5.406;2022-07-04T02:07:25;101856.13;;;13.55;72.52
54042;BME280;41156;51.508;5.406;2022-07-04T02:10:25;101850.09;;;13.53;72.44
54042;BME280;41156;51.508;5.406;2022-07-04T02:13:26;101859.47;;;13.50;72.73
54042;BME280;41156;51.508;5.406;2022-07-04T02:16:26;101848.00;;;13.48;72.86
54042;BME280;41156;51.508;5.406;2022-07-04T02:19:27;101849.03;;;13.47;72.84
54042;BME280;41156;51.508;5.406;2022-07-04T02:22:27;101847.19;;;13.41;73.06
54042;BME280;41156;51.508;5.406;2022-07-04T02:25:28;101851.94;;;13.39;73.08
54042;BME280;41156;51.508;5.406;2022-07-04T02:28:28;101858.44;;;13.38;73.28
54042;BME280;41156;51.508;5.406;2022-07-04T02:31:29;101855.94;;;13.36;73.51
54042;BME280;41156;51.508;5.406;2022-07-04T02:34:29;101866.19;;;13.34;73.49
54042;BME280;41156;51.508;5.406;2022-07-04T02:37:29;101867.38;;;13.31;73.83
54042;BME280;41156;51.508;5.406;2022-07-04T02:40:30;101861.34;;;13.29;73.79
54042;BME280;41156;51.508;5.406;2022-07-04T02:43:30;101873.00;;;13.23;73.70
54042;BME280;41156;51.508;5.406;2022-07-04T02:46:30;101862.56;;;13.20;73.90
54042;BME280;41156;51.508;5.406;2022-07-04T02:49:33;101864.66;;;13.18;73.85
54042;BME280;41156;51.508;5.406;2022-07-04T02:52:34;101872.19;;;13.16;74.40
54042;BME280;41156;51.508;5.406;2022-07-04T02:55:34;101867.16;;;13.13;73.71
54042;BME280;41156;51.508;5.406;2022-07-04T02:58:34;101862.16;;;13.10;74.54
54042;BME280;41156;51.508;5.406;2022-07-04T03:01:35;101872.16;;;13.09;74.30
54042;BME280;41156;51.508;5.406;2022-07-04T03:04:35;101866.13;;;13.07;74.52
54042;BME280;41156;51.508;5.406;2022-07-04T03:07:40;101870.06;;;13.05;74.63
54042;BME280;41156;51.508;5.406;2022-07-04T03:10:40;101873.81;;;13.04;74.73
54042;BME280;41156;51.508;5.406;2022-07-04T03:13:40;101883.00;;;13.03;75.07
54042;BME280;41156;51.508;5.406;2022-07-04T03:16:41;101885.09;;;13.01;74.74
54042;BME280;41156;51.508;5.406;2022-07-04T03:19:41;101889.66;;;13.00;75.22
54042;BME280;41156;51.508;5.406;2022-07-04T03:22:41;101890.94;;;12.98;75.16
54042;BME280;41156;51.508;5.406;2022-07-04T03:25:42;101893.66;;;12.98;75.51
54042;BME280;41156;51.508;5.406;2022-07-04T03:28:43;101898.00;;;12.99;75.40
54042;BME280;41156;51.508;5.406;2022-07-04T03:31:43;101894.47;;;12.98;75.68
54042;BME280;41156;51.508;5.406;2022-07-04T03:34:43;101906.34;;;12.97;75.50
54042;BME280;41156;51.508;5.406;2022-07-04T03:37:43;101900.94;;;12.97;75.57
54042;BME280;41156;51.508;5.406;2022-07-04T03:40:44;101908.25;;;12.96;75.90
54042;BME280;41156;51.508;5.406;2022-07-04T03:43:44;101911.56;;;12.99;75.83
54042;BME280;41156;51.508;5.406;2022-07-04T03:46:45;101915.97;;;13.00;75.98
54042;BME280;41156;51.508;5.406;2022-07-04T03:49:45;101922.66;;;13.04;76.30
54042;BME280;41156;51.508;5.406;2022-07-04T03:52:45;101919.72;;;13.05;76.51
54042;BME280;41156;51.508;5.406;2022-07-04T03:55:46;101923.94;;;13.08;76.55
54042;BME280;41156;51.508;5.406;2022-07-04T03:58:47;101925.59;;;13.09;76.91
54042;BME280;41156;51.508;5.406;2022-07-04T04:01:49;101923.53;;;13.11;76.90
54042;BME280;41156;51.508;5.406;2022-07-04T04:04:49;101926.88;;;13.13;76.87
54042;BME280;41156;51.508;5.406;2022-07-04T04:08:08;101926.47;;;13.16;76.77
54042;BME280;41156;51.508;5.406;2022-07-04T04:11:08;101931.06;;;13.16;76.87
54042;BME280;41156;51.508;5.406;2022-07-04T04:14:08;101917.06;;;13.19;77.00
54042;BME280;41156;51.508;5.406;2022-07-04T04:17:09;101920.63;;;13.19;77.27
54042;BME280;41156;51.508;5.406;2022-07-04T04:20:09;101923.97;;;13.21;77.21
54042;BME280;41156;51.508;5.406;2022-07-04T04:23:10;101928.97;;;13.24;77.60
54042;BME280;41156;51.508;5.406;2022-07-04T04:26:10;101939.44;;;13.27;77.88
54042;BME280;41156;51.508;5.406;2022-07-04T04:29:11;101939.69;;;13.32;77.46
54042;BME280;41156;51.508;5.406;2022-07-04T04:32:11;101942.81;;;13.36;78.20
54042;BME280;41156;51.508;5.406;2022-07-04T04:35:12;101945.13;;;13.39;77.83
54042;BME280;41156;51.508;5.406;2022-07-04T04:38:12;101945.31;;;13.44;77.89
54042;BME280;41156;51.508;5.406;2022-07-04T04:41:12;101958.28;;;13.49;78.10
54042;BME280;41156;51.508;5.406;2022-07-04T04:44:13;101955.78;;;13.54;78.33
54042;BME280;41156;51.508;5.406;2022-07-04T04:47:13;101951.59;;;13.58;78.36
54042;BME280;41156;51.508;5.406;2022-07-04T04:50:13;101942.00;;;13.62;78.43
54042;BME280;41156;51.508;5.406;2022-07-04T04:53:14;101945.56;;;13.69;78.38
54042;BME280;41156;51.508;5.406;2022-07-04T04:56:15;101939.50;;;13.74;78.10
54042;BME280;41156;51.508;5.406;2022-07-04T04:59:15;101942.22;;;13.81;78.17
54042;BME280;41156;51.508;5.406;2022-07-04T05:02:15;101939.69;;;13.86;78.42
54042;BME280;41156;51.508;5.406;2022-07-04T05:05:16;101936.75;;;13.94;78.47
54042;BME280;41156;51.508;5.406;2022-07-04T05:08:16;101935.47;;;14.03;78.38
54042;BME280;41156;51.508;5.406;2022-07-04T05:11:16;101932.53;;;14.12;78.34
54042;BME280;41156;51.508;5.406;2022-07-04T05:14:17;101930.22;;;14.22;78.58
54042;BME280;41156;51.508;5.406;2022-07-04T05:17:17;101928.97;;;14.31;78.56
54042;BME280;41156;51.508;5.406;2022-07-04T05:20:18;101926.19;;;14.44;78.35
54042;BME280;41156;51.508;5.406;2022-07-04T05:23:18;101927.66;;;14.60;77.93
54042;BME280;41156;51.508;5.406;2022-07-04T05:26:19;101929.25;;;14.75;78.05
54042;BME280;41156;51.508;5.406;2022-07-04T05:29:19;101926.06;;;14.85;78.18
54042;BME280;41156;51.508;5.406;2022-07-04T05:32:20;101934.19;;;14.91;78.05
54042;BME280;41156;51.508;5.406;2022-07-04T05:35:20;101936.44;;;15.01;77.89
54042;BME280;41156;51.508;5.406;2022-07-04T05:38:20;101935.34;;;15.15;78.08
54042;BME280;41156;51.508;5.406;2022-07-04T05:41:21;101937.50;;;15.32;78.37
54042;BME280;41156;51.508;5.406;2022-07-04T05:44:21;101944.69;;;15.51;77.82
54042;BME280;41156;51.508;5.406;2022-07-04T05:47:22;101943.16;;;15.62;78.00
54042;BME280;41156;51.508;5.406;2022-07-04T05:50:32;101946.00;;;15.74;78.10
54042;BME280;41156;51.508;5.406;2022-07-04T05:53:35;101946.38;;;15.84;77.77
54042;BME280;41156;51.508;5.406;2022-07-04T05:56:37;101946.47;;;15.96;77.23
54042;BME280;41156;51.508;5.406;2022-07-04T05:59:39;101948.16;;;16.16;77.16
54042;BME280;41156;51.508;5.406;2022-07-04T06:02:40;101956.75;;;16.38;76.50
54042;BME280;41156;51.508;5.406;2022-07-04T06:05:41;101960.53;;;16.55;76.68
54042;BME280;41156;51.508;5.406;2022-07-04T06:08:42;101957.97;;;16.60;76.01
54042;BME280;41156;51.508;5.406;2022-07-04T06:11:43;101965.00;;;16.68;75.90
54042;BME280;41156;51.508;5.406;2022-07-04T06:14:43;101951.28;;;16.75;75.77
54042;BME280;41156;51.508;5.406;2022-07-04T06:17:43;101959.31;;;16.88;75.17
54042;BME280;41156;51.508;5.406;2022-07-04T06:20:44;101954.22;;;17.10;75.37
54042;BME280;41156;51.508;5.406;2022-07-04T06:23:44;101952.13;;;17.24;75.00
54042;BME280;41156;51.508;5.406;2022-07-04T06:26:45;101948.94;;;17.39;75.01
54042;BME280;41156;51.508;5.406;2022-07-04T06:29:45;101956.47;;;17.55;74.05
54042;BME280;41156;51.508;5.406;2022-07-04T06:32:48;101956.03;;;17.70;73.42
54042;BME280;41156;51.508;5.406;2022-07-04T06:35:49;101957.69;;;17.83;73.35
54042;BME280;41156;51.508;5.406;2022-07-04T06:38:54;101951.16;;;17.84;72.54
54042;BME280;41156;51.508;5.406;2022-07-04T06:41:54;101953.81;;;17.91;71.98
54042;BME280;41156;51.508;5.406;2022-07-04T06:44:55;101960.22;;;17.97;71.27
54042;BME280;41156;51.508;5.406;2022-07-04T06:47:56;101947.28;;;18.16;71.05
54042;BME280;41156;51.508;5.406;2022-07-04T06:50:56;101954.97;;;18.42;70.03
54042;BME280;41156;51.508;5.406;2022-07-04T06:53:57;101957.88;;;18.76;69.44
54042;BME280;41156;51.508;5.406;2022-07-04T06:56:57;101959.47;;;19.01;67.46
54042;BME280;41156;51.508;5.406;2022-07-04T06:59:59;101959.19;;;19.14;67.96
54042;BME280;41156;51.508;5.406;2022-07-04T07:03:01;101952.44;;;19.34;65.80
54042;BME280;41156;51.508;5.406;2022-07-04T07:06:04;101946.75;;;19.23;66.63
54042;BME280;41156;51.508;5.406;2022-07-04T07:09:05;101937.69;;;19.23;66.74
54042;BME280;41156;51.508;5.406;2022-07-04T07:12:05;101937.03;;;19.33;65.93
54042;BME280;41156;51.508;5.406;2022-07-04T07:15:06;101949.09;;;19.32;65.17
54042;BME280;41156;51.508;5.406;2022-07-04T07:18:07;101945.19;;;19.45;64.89
54042;BME280;41156;51.508;5.406;2022-07-04T07:21:07;101939.78;;;19.67;65.09
54042;BME280;41156;51.508;5.406;2022-07-04T07:24:07;101940.66;;;19.84;64.18
54042;BME280;41156;51.508;5.406;2022-07-04T07:27:08;101945.94;;;20.08;64.24
54042;BME280;41156;51.508;5.406;2022-07-04T07:30:09;101947.22;;;20.39;63.21
54042;BME280;41156;51.508;5.406;2022-07-04T07:33:09;101957.13;;;20.62;63.20
54042;BME280;41156;51.508;5.406;2022-07-04T07:36:10;101958.09;;;21.22;62.03
54042;BME280;41156;51.508;5.406;2022-07-04T07:39:10;101964.97;;;21.47;60.68
54042;BME280;41156;51.508;5.406;2022-07-04T07:42:11;101960.06;;;21.54;59.88
54042;BME280;41156;51.508;5.406;2022-07-04T07:45:11;101953.66;;;21.76;59.07
54042;BME280;41156;51.508;5.406;2022-07-04T07:48:11;101952.81;;;22.18;53.66
54042;BME280;41156;51.508;5.406;2022-07-04T07:51:13;101942.78;;;22.39;55.43
54042;BME280;41156;51.508;5.406;2022-07-04T07:54:15;101937.97;;;22.67;56.00
54042;BME280;41156;51.508;5.406;2022-07-04T07:57:17;101942.50;;;23.14;55.11
54042;BME280;41156;51.508;5.406;2022-07-04T08:00:17;101930.38;;;23.61;53.66
54042;BME280;41156;51.508;5.406;2022-07-04T08:03:18;101928.66;;;24.27;52.51
54042;BME280;41156;51.508;5.406;2022-07-04T08:06:37;101923.41;;;24.91;50.93
54042;BME280;41156;51.508;5.406;2022-07-04T08:09:37;101931.25;;;25.18;49.79
54042;BME280;41156;51.508;5.406;2022-07-04T08:12:38;101934.31;;;25.51;48.01
54042;BME280;41156;51.508;5.406;2022-07-04T08:15:41;101935.50;;;25.74;47.15
54042;BME280;41156;51.508;5.406;2022-07-04T08:18:42;101933.41;;;25.90;47.02
54042;BME280;41156;51.508;5.406;2022-07-04T08:21:42;101936.81;;;26.11;46.09
54042;BME280;41156;51.508;5.406;2022-07-04T08:24:43;101936.06;;;26.06;45.42
54042;BME280;41156;51.508;5.406;2022-07-04T08:27:44;101944.19;;;26.21;42.53
54042;BME280;41156;51.508;5.406;2022-07-04T08:30:44;101938.88;;;26.25;45.41
54042;BME280;41156;51.508;5.406;2022-07-04T08:33:45;101949.56;;;26.36;43.98
54042;BME280;41156;51.508;5.406;2022-07-04T08:36:47;101945.78;;;26.51;43.66
54042;BME280;41156;51.508;5.406;2022-07-04T08:39:48;101948.38;;;26.86;43.45
54042;BME280;41156;51.508;5.406;2022-07-04T08:42:48;101943.53;;;26.97;43.17
54042;BME280;41156;51.508;5.406;2022-07-04T08:45:53;101947.25;;;27.06;41.64
54042;BME280;41156;51.508;5.406;2022-07-04T08:48:55;101949.09;;;26.97;41.93
54042;BME280;41156;51.508;5.406;2022-07-04T08:52:04;101945.38;;;27.01;42.38
54042;BME280;41156;51.508;5.406;2022-07-04T08:55:08;101951.97;;;27.24;41.73
54042;BME280;41156;51.508;5.406;2022-07-04T08:58:28;101953.03;;;27.09;41.81
54042;BME280;41156;51.508;5.406;2022-07-04T09:01:32;101945.78;;;27.32;41.50
54042;BME280;41156;51.508;5.406;2022-07-04T09:04:33;101948.75;;;27.55;41.60
54042;BME280;41156;51.508;5.406;2022-07-04T09:07:34;101954.00;;;27.57;41.50
54042;BME280;41156;51.508;5.406;2022-07-04T09:10:34;101944.06;;;27.37;39.37
54042;BME280;41156;51.508;5.406;2022-07-04T09:13:35;101945.31;;;27.25;41.42
54042;BME280;41156;51.508;5.406;2022-07-04T09:16:35;101950.44;;;27.18;40.67
54042;BME280;41156;51.508;5.406;2022-07-04T09:19:37;101947.41;;;27.14;41.00
54042;BME280;41156;51.508;5.406;2022-07-04T09:22:41;101950.41;;;27.37;40.70
54042;BME280;41156;51.508;5.406;2022-07-04T09:25:42;101938.66;;;27.26;40.55
54042;BME280;41156;51.508;5.406;2022-07-04T09:28:44;101945.56;;;27.10;41.25
54042;BME280;41156;51.508;5.406;2022-07-04T09:31:45;101946.00;;;26.79;41.26
54042;BME280;41156;51.508;5.406;2022-07-04T09:34:55;101940.00;;;26.72;40.89
54042;BME280;41156;51.508;5.406;2022-07-04T09:38:00;101938.81;;;26.06;41.73
54042;BME280;41156;51.508;5.406;2022-07-04T09:41:03;101950.97;;;25.80;42.00
54042;BME280;41156;51.508;5.406;2022-07-04T09:44:44;101943.63;;;25.26;41.68
54042;BME280;41156;51.508;5.406;2022-07-04T09:47:45;101950.16;;;25.01;42.58
54042;BME280;41156;51.508;5.406;2022-07-04T09:50:46;101947.88;;;25.08;43.08
54042;BME280;41156;51.508;5.406;2022-07-04T09:53:46;101940.22;;;25.39;42.98
54042;BME280;41156;51.508;5.406;2022-07-04T09:56:49;101941.72;;;25.95;42.22
54042;BME280;41156;51.508;5.406;2022-07-04T09:59:51;101940.47;;;26.07;41.84
54042;BME280;41156;51.508;5.406;2022-07-04T10:02:51;101937.16;;;26.04;41.75
54042;BME280;41156;51.508;5.406;2022-07-04T10:09:13;101940.59;;;26.20;41.43
54042;BME280;41156;51.508;5.406;2022-07-04T10:12:27;101948.00;;;25.72;42.28
54042;BME280;41156;51.508;5.406;2022-07-04T10:15:29;101943.69;;;25.84;42.30
54042;BME280;41156;51.508;5.406;2022-07-04T10:18:29;101931.47;;;25.91;42.05
54042;BME280;41156;51.508;5.406;2022-07-04T10:21:30;101929.53;;;26.20;41.95
54042;BME280;41156;51.508;5.406;2022-07-04T10:24:31;101925.47;;;26.56;41.64
54042;BME280;41156;51.508;5.406;2022-07-04T10:27:31;101925.81;;;26.92;41.14
54042;BME280;41156;51.508;5.406;2022-07-04T10:30:36;101920.50;;;26.96;40.47
54042;BME280;41156;51.508;5.406;2022-07-04T10:33:37;101923.72;;;27.22;40.00
54042;BME280;41156;51.508;5.406;2022-07-04T10:36:38;101913.06;;;27.29;39.86
54042;BME280;41156;51.508;5.406;2022-07-04T10:39:38;101918.69;;;27.43;40.06
54042;BME280;41156;51.508;5.406;2022-07-04T10:42:40;101914.66;;;27.36;40.00
54042;BME280;41156;51.508;5.406;2022-07-04T10:45:41;101915.78;;;27.35;39.93
54042;BME280;41156;51.508;5.406;2022-07-04T10:48:52;101904.16;;;27.32;37.93
54042;BME280;41156;51.508;5.406;2022-07-04T10:52:13;101908.72;;;27.42;39.18
54042;BME280;41156;51.508;5.406;2022-07-04T10:55:14;101897.56;;;27.61;38.21
54042;BME280;41156;51.508;5.406;2022-07-04T10:58:41;101901.78;;;27.73;37.71
54042;BME280;41156;51.508;5.406;2022-07-04T11:01:46;101880.00;;;27.80;37.96
54042;BME280;41156;51.508;5.406;2022-07-04T11:05:06;101895.72;;;27.71;37.18
54042;BME280;41156;51.508;5.406;2022-07-04T11:08:07;101898.75;;;28.02;38.12
54042;BME280;41156;51.508;5.406;2022-07-04T11:14:49;101889.66;;;28.66;37.62
54042;BME280;41156;51.508;5.406;2022-07-04T11:17:49;101896.38;;;28.65;36.94
54042;BME280;41156;51.508;5.406;2022-07-04T11:20:52;101897.25;;;28.74;36.83
54042;BME280;41156;51.508;5.406;2022-07-04T11:23:53;101898.47;;;28.82;36.44
54042;BME280;41156;51.508;5.406;2022-07-04T11:26:54;101897.66;;;29.04;36.58
54042;BME280;41156;51.508;5.406;2022-07-04T11:29:55;101879.28;;;28.43;36.44
54042;BME280;41156;51.508;5.406;2022-07-04T11:32:56;101882.28;;;27.92;37.08
54042;BME280;41156;51.508;5.406;2022-07-04T11:36:04;101882.66;;;27.71;37.32
54042;BME280;41156;51.508;5.406;2022-07-04T11:39:07;101880.97;;;27.56;37.83
54042;BME280;41156;51.508;5.406;2022-07-04T11:42:08;101886.59;;;27.37;37.89
54042;BME280;41156;51.508;5.406;2022-07-04T11:45:27;101872.75;;;27.18;37.60
54042;BME280;41156;51.508;5.406;2022-07-04T11:48:30;101880.72;;;26.87;38.02
54042;BME280;41156;51.508;5.406;2022-07-04T11:51:31;101878.91;;;26.96;38.09
54042;BME280;41156;51.508;5.406;2022-07-04T11:54:31;101879.84;;;27.24;38.44
54042;BME280;41156;51.508;5.406;2022-07-04T11:57:46;101867.66;;;27.72;38.29
54042;BME280;41156;51.508;5.406;2022-07-04T12:00:47;101872.09;;;28.01;37.65
54042;BME280;41156;51.508;5.406;2022-07-04T12:03:47;101876.22;;;28.31;37.04
54042;BME280;41156;51.508;5.406;2022-07-04T12:06:48;101873.91;;;28.61;36.44
54042;BME280;41156;51.508;5.406;2022-07-04T12:09:49;101875.25;;;28.64;35.60
54042;BME280;41156;51.508;5.406;2022-07-04T12:12:54;101870.31;;;28.47;33.98
54042;BME280;41156;51.508;5.406;2022-07-04T12:15:55;101863.56;;;27.97;35.70
54042;BME280;41156;51.508;5.406;2022-07-04T12:18:57;101864.97;;;27.53;36.08
54042;BME280;41156;51.508;5.406;2022-07-04T12:22:08;101867.66;;;27.72;36.52
54042;BME280;41156;51.508;5.406;2022-07-04T12:25:20;101865.75;;;27.40;35.18
54042;BME280;41156;51.508;5.406;2022-07-04T12:28:21;101881.19;;;27.27;36.78
54042;BME280;41156;51.508;5.406;2022-07-04T12:31:43;101875.63;;;26.94;36.71
54042;BME280;41156;51.508;5.406;2022-07-04T12:34:44;101870.03;;;26.56;37.45
54042;BME280;41156;51.508;5.406;2022-07-04T12:38:00;101875.34;;;26.33;37.20
54042;BME280;41156;51.508;5.406;2022-07-04T12:41:03;101870.22;;;26.21;38.52
54042;BME280;41156;51.508;5.406;2022-07-04T12:44:06;101862.00;;;26.16;38.04
54042;BME280;41156;51.508;5.406;2022-07-04T12:47:08;101859.63;;;26.48;38.01
54042;BME280;41156;51.508;5.406;2022-07-04T12:50:08;101850.28;;;27.01;37.03
54042;BME280;41156;51.508;5.406;2022-07-04T12:53:09;101843.75;;;27.43;36.46
54042;BME280;41156;51.508;5.406;2022-07-04T12:56:10;101843.66;;;27.62;36.16
54042;BME280;41156;51.508;5.406;2022-07-04T12:59:26;101845.88;;;27.93;36.14
54042;BME280;41156;51.508;5.406;2022-07-04T13:02:26;101845.16;;;28.15;35.70
54042;BME280;41156;51.508;5.406;2022-07-04T13:05:27;101835.03;;;28.33;35.80
54042;BME280;41156;51.508;5.406;2022-07-04T13:08:27;101842.91;;;28.54;35.38
54042;BME280;41156;51.508;5.406;2022-07-04T13:11:28;101844.88;;;28.39;35.94
54042;BME280;41156;51.508;5.406;2022-07-04T13:14:47;101842.03;;;27.89;36.56
54042;BME280;41156;51.508;5.406;2022-07-04T13:17:48;101840.78;;;27.54;36.76
54042;BME280;41156;51.508;5.406;2022-07-04T13:20:48;101843.16;;;27.60;36.96
54042;BME280;41156;51.508;5.406;2022-07-04T13:23:58;101836.59;;;27.98;36.82
54042;BME280;41156;51.508;5.406;2022-07-04T13:26:58;101838.56;;;28.11;36.13
54042;BME280;41156;51.508;5.406;2022-07-04T13:29:58;101829.81;;;28.18;35.98
54042;BME280;41156;51.508;5.406;2022-07-04T13:32:59;101841.28;;;28.39;36.06
54042;BME280;41156;51.508;5.406;2022-07-04T13:36:02;101842.44;;;28.74;35.57
54042;BME280;41156;51.508;5.406;2022-07-04T13:39:03;101836.31;;;28.64;35.67
54042;BME280;41156;51.508;5.406;2022-07-04T13:42:04;101835.69;;;28.67;35.67
54042;BME280;41156;51.508;5.406;2022-07-04T13:45:05;101830.06;;;28.81;35.35
54042;BME280;41156;51.508;5.406;2022-07-04T13:48:06;101840.56;;;28.84;35.28
54042;BME280;41156;51.508;5.406;2022-07-04T13:51:07;101844.75;;;28.95;34.85
54042;BME280;41156;51.508;5.406;2022-07-04T13:54:08;101844.22;;;29.15;34.98
54042;BME280;41156;51.508;5.406;2022-07-04T13:57:08;101835.47;;;29.22;35.00
54042;BME280;41156;51.508;5.406;2022-07-04T14:00:09;101833.28;;;29.42;34.96
54042;BME280;41156;51.508;5.406;2022-07-04T14:03:12;101828.72;;;29.46;34.18
54042;BME280;41156;51.508;5.406;2022-07-04T14:06:16;101838.47;;;29.66;33.78
54042;BME280;41156;51.508;5.406;2022-07-04T14:09:16;101830.53;;;29.50;34.40
54042;BME280;41156;51.508;5.406;2022-07-04T14:12:17;101834.97;;;29.51;34.18
54042;BME280;41156;51.508;5.406;2022-07-04T14:15:18;101832.91;;;29.66;33.62
54042;BME280;41156;51.508;5.406;2022-07-04T14:18:19;101832.72;;;29.62;33.55
54042;BME280;41156;51.508;5.406;2022-07-04T14:21:19;101840.78;;;29.73;33.36
54042;BME280;41156;51.508;5.406;2022-07-04T14:24:19;101826.78;;;29.46;33.91
54042;BME280;41156;51.508;5.406;2022-07-04T14:27:20;101824.22;;;29.36;33.59
54042;BME280;41156;51.508;5.406;2022-07-04T14:30:20;101829.03;;;29.44;33.66
54042;BME280;41156;51.508;5.406;2022-07-04T14:33:20;101832.31;;;29.78;33.38
54042;BME280;41156;51.508;5.406;2022-07-04T14:36:21;101826.16;;;29.98;33.28
54042;BME280;41156;51.508;5.406;2022-07-04T14:39:21;101832.06;;;29.97;33.03
54042;BME280;41156;51.508;5.406;2022-07-04T14:42:22;101817.88;;;29.76;33.00
54042;BME280;41156;51.508;5.406;2022-07-04T14:45:22;101826.72;;;29.15;33.84
54042;BME280;41156;51.508;5.406;2022-07-04T14:48:22;101823.44;;;28.54;34.41
54042;BME280;41156;51.508;5.406;2022-07-04T14:51:23;101824.56;;;28.16;34.91
54042;BME280;41156;51.508;5.406;2022-07-04T14:54:25;101824.91;;;28.51;34.83
54042;BME280;41156;51.508;5.406;2022-07-04T14:57:25;101817.97;;;28.63;34.98
54042;BME280;41156;51.508;5.406;2022-07-04T15:00:26;101823.56;;;28.49;34.80
54042;BME280;41156;51.508;5.406;2022-07-04T15:03:27;101815.94;;;28.18;35.24
54042;BME280;41156;51.508;5.406;2022-07-04T15:06:27;101812.72;;;28.11;35.30
54042;BME280;41156;51.508;5.406;2022-07-04T15:09:28;101806.16;;;27.79;35.74
54042;BME280;41156;51.508;5.406;2022-07-04T15:12:28;101804.81;;;27.48;36.48
54042;BME280;41156;51.508;5.406;2022-07-04T15:15:28;101795.16;;;27.74;36.31
54042;BME280;41156;51.508;5.406;2022-07-04T15:18:29;101805.09;;;28.30;35.92
54042;BME280;41156;51.508;5.406;2022-07-04T15:21:29;101801.19;;;28.68;35.93
54042;BME280;41156;51.508;5.406;2022-07-04T15:25:02;101799.53;;;28.89;35.00
54042;BME280;41156;51.508;5.406;2022-07-04T15:28:03;101797.22;;;28.60;35.28
54042;BME280;41156;51.508;5.406;2022-07-04T15:31:04;101804.16;;;28.71;35.39
54042;BME280;41156;51.508;5.406;2022-07-04T15:34:05;101789.13;;;28.95;34.90
54042;BME280;41156;51.508;5.406;2022-07-04T15:37:06;101797.31;;;29.23;34.51
54042;BME280;41156;51.508;5.406;2022-07-04T15:40:07;101798.78;;;29.20;34.64
54042;BME280;41156;51.508;5.406;2022-07-04T15:43:08;101791.59;;;28.74;35.06
54042;BME280;41156;51.508;5.406;2022-07-04T15:46:10;101795.34;;;28.55;35.21
54042;BME280;41156;51.508;5.406;2022-07-04T15:49:11;101796.81;;;28.53;35.42
54042;BME280;41156;51.508;5.406;2022-07-04T15:52:12;101783.72;;;28.53;35.34
54042;BME280;41156;51.508;5.406;2022-07-04T15:55:13;101786.50;;;28.53;35.58
54042;BME280;41156;51.508;5.406;2022-07-04T15:58:14;101784.63;;;28.63;35.49